sensor_id;sensor_type;location;lat;lon;timestamp;pressure;altitude;pressure_sealevel;temperature;humidity
19600;BME280;9947;57.722;12.012;2024-03-22T00:06:38;100158.78;;;3.83;100.00
19600;BME280;9947;57.722;12.012;2024-03-22T00:09:07;100197.84;;;3.86;100.00
19600;BME280;9947;57.722;12.012;2024-03-22T00:11:36;100216.56;;;3.86;100.00
19600;BME280;9947;57.722;12.012;2024-03-22T00:14:05;100238.56;;;3.91;100.00
19600;BME280;9947;57.722;12.012;2024-03-22T00:16:33;100245.75;;;3.90;100.00
19600;BME280;9947;57.722;12.012;2024-03-22T00:21:28;100282.72;;;3.98;100.00
19600;BME280;9947;57.722;12.012;2024-03-22T00:26:23;100301.38;;;3.99;100.00
19600;BME280;9947;57.722;12.012;2024-03-22T00:28:51;100303.94;;;4.01;100.00
19600;BME280;9947;57.722;12.012;2024-03-22T00:31:18;100312.94;;;4.00;100.00
19600;BME280;9947;57.722;12.012;2024-03-22T00:33:46;100311.81;;;4.04;100.00
19600;BME280;9947;57.722;12.012;2024-03-22T00:38:44;100318.00;;;4.05;100.00
19600;BME280;9947;57.722;12.012;2024-03-22T00:41:15;100315.25;;;4.06;100.00
19600;BME280;9947;57.722;12.012;2024-03-22T00:43:48;100311.44;;;4.10;100.00
19600;BME280;9947;57.722;12.012;2024-03-22T00:46:17;100316.09;;;4.07;100.00
19600;BME280;9947;57.722;12.012;2024-03-22T00:48:44;100311.44;;;4.10;100.00
19600;BME280;9947;57.722;12.012;2024-03-22T00:51:12;100324.63;;;4.13;100.00
19600;BME280;9947;57.722;12.012;2024-03-22T00:53:41;100324.56;;;4.15;100.00
19600;BME280;9947;57.722;12.012;2024-03-22T00:56:10;100327.13;;;4.16;100.00
19600;BME280;9947;57.722;12.012;2024-03-22T00:58:38;100337.94;;;4.15;100.00
19600;BME280;9947;57.722;12.012;2024-03-22T01:01:11;100332.44;;;4.18;100.00
19600;BME280;9947;57.722;12.012;2024-03-22T01:03:38;100333.53;;;4.14;100.00
19600;BME280;9947;57.722;12.012;2024-03-22T01:06:20;100340.47;;;4.18;100.00
19600;BME280;9947;57.722;12.012;2024-03-22T01:08:52;100331.47;;;4.19;100.00
19600;BME280;9947;57.722;12.012;2024-03-22T01:11:21;100341.91;;;4.23;100.00
19600;BME280;9947;57.722;12.012;2024-03-22T01:13:49;100334.56;;;4.27;100.00
19600;BME280;9947;57.722;12.012;2024-03-22T01:16:17;100342.78;;;4.24;100.00
19600;BME280;9947;57.722;12.012;2024-03-22T01:18:47;100342.59;;;4.27;100.00
19600;BME280;9947;57.722;12.012;2024-03-22T01:21:12;100334.56;;;4.27;100.00
19600;BME280;9947;57.722;12.012;2024-03-22T01:23:42;100333.63;;;4.28;100.00
19600;BME280;9947;57.722;12.012;2024-03-22T01:26:10;100339.75;;;4.30;100.00
19600;BME280;9947;57.722;12.012;2024-03-22T01:28:46;100345.09;;;4.30;100.00
19600;BME280;9947;57.722;12.012;2024-03-22T01:31:18;100342.25;;;4.33;100.00
19600;BME280;9947;57.722;12.012;2024-03-22T01:33:47;100342.06;;;4.36;100.00
19600;BME280;9947;57.722;12.012;2024-03-22T01:36:14;100343.78;;;4.37;100.00
19600;BME280;9947;57.722;12.012;2024-03-22T01:38:44;100324.38;;;4.33;100.00
19600;BME280;9947;57.722;12.012;2024-03-22T01:41:15;100339.38;;;4.36;100.00
19600;BME280;9947;57.722;12.012;2024-03-22T01:43:43;100337.56;;;4.37;100.00
19600;BME280;9947;57.722;12.012;2024-03-22T01:46:13;100332.41;;;4.33;100.00
19600;BME280;9947;57.722;12.012;2024-03-22T01:48:42;100343.69;;;4.39;100.00
19600;BME280;9947;57.722;12.012;2024-03-22T01:51:11;100335.84;;;4.36;100.00
19600;BME280;9947;57.722;12.012;2024-03-22T01:53:40;100335.75;;;4.37;100.00
19600;BME280;9947;57.722;12.012;2024-03-22T01:56:12;100335.59;;;4.40;100.00
19600;BME280;9947;57.722;12.012;2024-03-22T01:58:39;100330.22;;;4.40;100.00
19600;BME280;9947;57.722;12.012;2024-03-22T02:01:09;100312.34;;;4.41;100.00
19600;BME280;9947;57.722;12.012;2024-03-22T02:03:44;100313.31;;;4.40;100.00
19600;BME280;9947;57.722;12.012;2024-03-22T02:06:16;100324.72;;;4.43;100.00
19600;BME280;9947;57.722;12.012;2024-03-22T02:08:43;100319.28;;;4.45;100.00
19600;BME280;9947;57.722;12.012;2024-03-22T02:11:14;100349.41;;;4.48;100.00
19600;BME280;9947;57.722;12.012;2024-03-22T02:13:40;100338.78;;;4.47;100.00
19600;BME280;9947;57.722;12.012;2024-03-22T02:16:08;100336.88;;;4.49;100.00
19600;BME280;9947;57.722;12.012;2024-03-22T02:18:36;100342.16;;;4.50;100.00
19600;BME280;9947;57.722;12.012;2024-03-22T02:21:08;100329.63;;;4.51;100.00
19600;BME280;9947;57.722;12.012;2024-03-22T02:23:43;100322.47;;;4.51;100.00
19600;BME280;9947;57.722;12.012;2024-03-22T02:26:11;100318.66;;;4.55;100.00
19600;BME280;9947;57.722;12.012;2024-03-22T02:28:38;100327.34;;;4.59;100.00
19600;BME280;9947;57.722;12.012;2024-03-22T02:31:07;100323.03;;;4.56;100.00
19600;BME280;9947;57.722;12.012;2024-03-22T02:33:35;100338.94;;;4.59;100.00
19600;BME280;9947;57.722;12.012;2024-03-22T02:38:28;100322.00;;;4.59;100.00
19600;BME280;9947;57.722;12.012;2024-03-22T02:43:28;100320.09;;;4.61;100.00
19600;BME280;9947;57.722;12.012;2024-03-22T02:48:29;100335.03;;;4.65;100.00
19600;BME280;9947;57.722;12.012;2024-03-22T02:51:04;100325.25;;;4.64;100.00
19600;BME280;9947;57.722;12.012;2024-03-22T02:53:31;100328.63;;;4.68;100.00
19600;BME280;9947;57.722;12.012;2024-03-22T02:58:32;100335.72;;;4.69;100.00
19600;BME280;9947;57.722;12.012;2024-03-22T03:01:05;100335.53;;;4.72;100.00
19600;BME280;9947;57.722;12.012;2024-03-22T03:03:35;100333.13;;;4.67;100.00
19600;BME280;9947;57.722;12.012;2024-03-22T03:06:09;100328.47;;;4.71;100.00
19600;BME280;9947;57.722;12.012;2024-03-22T03:08:40;100346.34;;;4.70;100.00
19600;BME280;9947;57.722;12.012;2024-03-22T03:11:14;100347.31;;;4.69;100.00
19600;BME280;9947;57.722;12.012;2024-03-22T03:13:42;100350.75;;;4.71;100.00
19600;BME280;9947;57.722;12.012;2024-03-22T03:16:11;100351.53;;;4.73;100.00
19600;BME280;9947;57.722;12.012;2024-03-22T03:18:37;100358.59;;;4.74;100.00
19600;BME280;9947;57.722;12.012;2024-03-22T03:21:08;100367.31;;;4.78;100.00
19600;BME280;9947;57.722;12.012;2024-03-22T03:23:35;100372.66;;;4.78;100.00
19600;BME280;9947;57.722;12.012;2024-03-22T03:26:03;100366.53;;;4.76;100.00
19600;BME280;9947;57.722;12.012;2024-03-22T03:28:31;100370.94;;;4.77;100.00
19600;BME280;9947;57.722;12.012;2024-03-22T03:33:38;100393.13;;;4.79;100.00
19600;BME280;9947;57.722;12.012;2024-03-22T03:36:07;100400.22;;;4.80;100.00
19600;BME280;9947;57.722;12.012;2024-03-22T03:38:33;100425.00;;;4.83;100.00
19600;BME280;9947;57.722;12.012;2024-03-22T03:41:03;100418.88;;;4.81;100.00
19600;BME280;9947;57.722;12.012;2024-03-22T03:43:31;100427.69;;;4.83;100.00
19600;BME280;9947;57.722;12.012;2024-03-22T03:46:03;100438.31;;;4.85;100.00
19600;BME280;9947;57.722;12.012;2024-03-22T03:48:29;100442.88;;;4.83;100.00
19600;BME280;9947;57.722;12.012;2024-03-22T03:51:03;100425.78;;;4.85;100.00
19600;BME280;9947;57.722;12.012;2024-03-22T03:53:31;100446.16;;;4.88;100.00
19600;BME280;9947;57.722;12.012;2024-03-22T04:01:25;100464.91;;;4.88;100.00
19600;BME280;9947;57.722;12.012;2024-03-22T04:03:55;100450.75;;;4.86;100.00
19600;BME280;9947;57.722;12.012;2024-03-22T04:08:58;100465.44;;;4.94;100.00
19600;BME280;9947;57.722;12.012;2024-03-22T04:11:26;100448.75;;;4.89;100.00
19600;BME280;9947;57.722;12.012;2024-03-22T04:13:52;100445.88;;;4.92;100.00
19600;BME280;9947;57.722;12.012;2024-03-22T04:18:45;100455.59;;;4.95;100.00
19600;BME280;9947;57.722;12.012;2024-03-22T04:21:27;100480.28;;;5.00;100.00
19600;BME280;9947;57.722;12.012;2024-03-22T04:23:53;100476.84;;;4.98;100.00
19600;BME280;9947;57.722;12.012;2024-03-22T04:28:47;100466.22;;;4.97;100.00
19600;BME280;9947;57.722;12.012;2024-03-22T04:31:25;100474.06;;;5.00;100.00
19600;BME280;9947;57.722;12.012;2024-03-22T04:33:51;100473.38;;;4.96;100.00
19600;BME280;9947;57.722;12.012;2024-03-22T04:38:52;100477.34;;;5.05;100.00
19600;BME280;9947;57.722;12.012;2024-03-22T04:41:29;100476.56;;;5.03;100.00
19600;BME280;9947;57.722;12.012;2024-03-22T04:44:14;100475.03;;;4.99;100.00
19600;BME280;9947;57.722;12.012;2024-03-22T04:46:55;100481.06;;;5.02;100.00
19600;BME280;9947;57.722;12.012;2024-03-22T04:51:50;100497.63;;;5.09;100.00
19600;BME280;9947;57.722;12.012;2024-03-22T04:54:23;100490.47;;;5.09;100.00
19600;BME280;9947;57.722;12.012;2024-03-22T04:56:51;100484.91;;;5.12;100.00
19600;BME280;9947;57.722;12.012;2024-03-22T04:59:23;100481.28;;;5.13;100.00
19600;BME280;9947;57.722;12.012;2024-03-22T05:01:56;100478.50;;;5.15;100.00
19600;BME280;9947;57.722;12.012;2024-03-22T05:04:28;100469.63;;;5.14;100.00
19600;BME280;9947;57.722;12.012;2024-03-22T05:06:54;100471.34;;;5.15;100.00
19600;BME280;9947;57.722;12.012;2024-03-22T05:09:31;100467.78;;;5.15;100.00
19600;BME280;9947;57.722;12.012;2024-03-22T05:12:02;100479.28;;;5.17;100.00
19600;BME280;9947;57.722;12.012;2024-03-22T05:14:33;100469.34;;;5.19;100.00
19600;BME280;9947;57.722;12.012;2024-03-22T05:16:59;100465.88;;;5.17;100.00
19600;BME280;9947;57.722;12.012;2024-03-22T05:19:29;100467.47;;;5.21;100.00
19600;BME280;9947;57.722;12.012;2024-03-22T05:22:05;100462.97;;;5.21;100.00
19600;BME280;9947;57.722;12.012;2024-03-22T05:24:34;100475.41;;;5.22;100.00
19600;BME280;9947;57.722;12.012;2024-03-22T05:27:02;100464.84;;;5.19;100.00
19600;BME280;9947;57.722;12.012;2024-03-22T05:29:32;100453.88;;;5.24;100.00
19600;BME280;9947;57.722;12.012;2024-03-22T05:32:00;100459.16;;;5.25;100.00
19600;BME280;9947;57.722;12.012;2024-03-22T05:34:33;100461.56;;;5.30;100.00
19600;BME280;9947;57.722;12.012;2024-03-22T05:37:06;100461.47;;;5.32;100.00
19600;BME280;9947;57.722;12.012;2024-03-22T05:39:41;100440.78;;;5.34;100.00
19600;BME280;9947;57.722;12.012;2024-03-22T05:42:11;100450.56;;;5.35;100.00
19600;BME280;9947;57.722;12.012;2024-03-22T05:47:16;100453.91;;;5.38;100.00
19600;BME280;9947;57.722;12.012;2024-03-22T05:49:47;100367.16;;;5.39;100.00
19600;BME280;9947;57.722;12.012;2024-03-22T05:52:12;100343.91;;;5.40;100.00
19600;BME280;9947;57.722;12.012;2024-03-22T05:54:44;100353.78;;;5.39;100.00
19600;BME280;9947;57.722;12.012;2024-03-22T05:57:13;100350.69;;;5.45;100.00
19600;BME280;9947;57.722;12.012;2024-03-22T05:59:47;100350.63;;;5.47;100.00
19600;BME280;9947;57.722;12.012;2024-03-22T06:04:45;100343.06;;;5.53;100.00
19600;BME280;9947;57.722;12.012;2024-03-22T06:07:12;100337.81;;;5.52;100.00
19600;BME280;9947;57.722;12.012;2024-03-22T06:09:48;100335.03;;;5.53;100.00
19600;BME280;9947;57.722;12.012;2024-03-22T06:14:44;100324.22;;;5.55;100.00
19600;BME280;9947;57.722;12.012;2024-03-22T06:17:13;100331.38;;;5.54;100.00
19600;BME280;9947;57.722;12.012;2024-03-22T06:19:39;100332.81;;;5.60;100.00
19600;BME280;9947;57.722;12.012;2024-03-22T06:22:09;100317.41;;;5.64;100.00
19600;BME280;9947;57.722;12.012;2024-03-22T06:24:36;100306.09;;;5.58;100.00
19600;BME280;9947;57.722;12.012;2024-03-22T06:27:10;100303.31;;;5.60;100.00
19600;BME280;9947;57.722;12.012;2024-03-22T06:29:36;100309.06;;;5.54;100.00
19600;BME280;9947;57.722;12.012;2024-03-22T06:32:15;100313.09;;;5.61;100.00
19600;BME280;9947;57.722;12.012;2024-03-22T06:34:41;100322.00;;;5.62;100.00
19600;BME280;9947;57.722;12.012;2024-03-22T06:37:16;100320.94;;;5.64;100.00
19600;BME280;9947;57.722;12.012;2024-03-22T06:39:45;100312.69;;;5.67;100.00
19600;BME280;9947;57.722;12.012;2024-03-22T06:42:14;100303.59;;;5.70;100.00
19600;BME280;9947;57.722;12.012;2024-03-22T06:44:49;100306.28;;;5.70;100.00
19600;BME280;9947;57.722;12.012;2024-03-22T06:47:29;100298.81;;;5.75;100.00
19600;BME280;9947;57.722;12.012;2024-03-22T06:49:58;100301.22;;;5.79;100.00
19600;BME280;9947;57.722;12.012;2024-03-22T06:52:41;100289.91;;;5.74;100.00
19600;BME280;9947;57.722;12.012;2024-03-22T06:55:07;100285.56;;;5.72;100.00
19600;BME280;9947;57.722;12.012;2024-03-22T06:57:37;100273.13;;;5.71;100.00
19600;BME280;9947;57.722;12.012;2024-03-22T07:00:09;100281.00;;;5.74;100.00
19600;BME280;9947;57.722;12.012;2024-03-22T07:02:37;100276.13;;;5.66;100.00
19600;BME280;9947;57.722;12.012;2024-03-22T07:05:09;100272.00;;;5.75;100.00
19600;BME280;9947;57.722;12.012;2024-03-22T07:07:40;100270.94;;;5.77;100.00
19600;BME280;9947;57.722;12.012;2024-03-22T07:10:07;100270.84;;;5.79;100.00
19600;BME280;9947;57.722;12.012;2024-03-22T07:12:35;100270.75;;;5.80;100.00
19600;BME280;9947;57.722;12.012;2024-03-22T07:15:21;100261.53;;;5.84;100.00
19600;BME280;9947;57.722;12.012;2024-03-22T07:17:48;100274.19;;;5.82;100.00
19600;BME280;9947;57.722;12.012;2024-03-22T07:23:03;100264.72;;;5.77;100.00
19600;BME280;9947;57.722;12.012;2024-03-22T07:25:35;100267.00;;;5.83;100.00
19600;BME280;9947;57.722;12.012;2024-03-22T07:28:08;100264.97;;;5.86;100.00
19600;BME280;9947;57.722;12.012;2024-03-22T07:30:43;100253.38;;;5.86;100.00
19600;BME280;9947;57.722;12.012;2024-03-22T07:33:10;100252.31;;;5.88;100.00
19600;BME280;9947;57.722;12.012;2024-03-22T07:35:42;100244.19;;;5.90;100.00
19600;BME280;9947;57.722;12.012;2024-03-22T07:38:26;100244.75;;;5.95;100.00
19600;BME280;9947;57.722;12.012;2024-03-22T07:40:57;100254.44;;;5.98;100.00
19600;BME280;9947;57.722;12.012;2024-03-22T07:43:27;100255.97;;;6.02;100.00
19600;BME280;9947;57.722;12.012;2024-03-22T07:45:55;100245.63;;;5.96;100.00
19600;BME280;9947;57.722;12.012;2024-03-22T07:48:27;100239.00;;;6.01;100.00
19600;BME280;9947;57.722;12.012;2024-03-22T07:51:00;100240.84;;;6.01;100.00
19600;BME280;9947;57.722;12.012;2024-03-22T07:53:30;100246.75;;;6.06;100.00
19600;BME280;9947;57.722;12.012;2024-03-22T07:56:00;100240.72;;;6.02;100.00
19600;BME280;9947;57.722;12.012;2024-03-22T07:58:30;100234.41;;;6.03;100.00
19600;BME280;9947;57.722;12.012;2024-03-22T08:01:12;100227.22;;;6.04;100.00
19600;BME280;9947;57.722;12.012;2024-03-22T08:03:41;100235.06;;;6.07;100.00
19600;BME280;9947;57.722;12.012;2024-03-22T08:06:37;100225.94;;;6.09;100.00
19600;BME280;9947;57.722;12.012;2024-03-22T08:11:48;100221.22;;;6.13;100.00
19600;BME280;9947;57.722;12.012;2024-03-22T08:14:47;100210.69;;;6.10;100.00
19600;BME280;9947;57.722;12.012;2024-03-22T08:17:19;100209.63;;;6.12;100.00
19600;BME280;9947;57.722;12.012;2024-03-22T08:19:55;100209.31;;;6.17;100.00
19600;BME280;9947;57.722;12.012;2024-03-22T08:22:47;100194.50;;;6.11;100.00
19600;BME280;9947;57.722;12.012;2024-03-22T08:25:27;100196.56;;;6.21;100.00
19600;BME280;9947;57.722;12.012;2024-03-22T08:27:59;100205.56;;;6.19;100.00
19600;BME280;9947;57.722;12.012;2024-03-22T08:33:31;100204.50;;;6.22;100.00
19600;BME280;9947;57.722;12.012;2024-03-22T08:39:08;100195.69;;;6.20;100.00
19600;BME280;9947;57.722;12.012;2024-03-22T08:44:35;100182.59;;;6.15;100.00
19600;BME280;9947;57.722;12.012;2024-03-22T08:47:14;100187.66;;;6.20;100.00
19600;BME280;9947;57.722;12.012;2024-03-22T08:49:41;100179.03;;;6.15;100.00
19600;BME280;9947;57.722;12.012;2024-03-22T08:52:15;100176.38;;;6.15;100.00
19600;BME280;9947;57.722;12.012;2024-03-22T08:54:51;100178.94;;;6.16;100.00
19600;BME280;9947;57.722;12.012;2024-03-22T08:57:33;100176.56;;;6.12;100.00
19600;BME280;9947;57.722;12.012;2024-03-22T09:00:02;100168.41;;;6.13;100.00
19600;BME280;9947;57.722;12.012;2024-03-22T09:02:39;100183.72;;;6.26;100.00
19600;BME280;9947;57.722;12.012;2024-03-22T09:05:52;100171.25;;;6.25;100.00
19600;BME280;9947;57.722;12.012;2024-03-22T09:08:26;100178.56;;;6.35;100.00
19600;BME280;9947;57.722;12.012;2024-03-22T09:11:07;100175.78;;;6.37;100.00
19600;BME280;9947;57.722;12.012;2024-03-22T09:17:07;100191.28;;;6.71;100.00
19600;BME280;9947;57.722;12.012;2024-03-22T09:20:00;100181.06;;;6.76;100.00
19600;BME280;9947;57.722;12.012;2024-03-22T09:22:30;100177.53;;;6.63;100.00
19600;BME280;9947;57.722;12.012;2024-03-22T09:24:58;100183.78;;;6.89;100.00
19600;BME280;9947;57.722;12.012;2024-03-22T09:29:52;100182.13;;;7.25;100.00
19600;BME280;9947;57.722;12.012;2024-03-22T09:34:45;100165.88;;;7.26;100.00
19600;BME280;9947;57.722;12.012;2024-03-22T09:37:12;100147.78;;;7.04;100.00
19600;BME280;9947;57.722;12.012;2024-03-22T09:39:38;100148.19;;;7.11;100.00
19600;BME280;9947;57.722;12.012;2024-03-22T09:42:07;100120.13;;;7.02;100.00
19600;BME280;9947;57.722;12.012;2024-03-22T09:44:33;100115.38;;;7.19;100.00
19600;BME280;9947;57.722;12.012;2024-03-22T09:47:01;100077.63;;;7.20;100.00
19600;BME280;9947;57.722;12.012;2024-03-22T09:49:30;100073.19;;;7.32;100.00
19600;BME280;9947;57.722;12.012;2024-03-22T09:51:57;100040.69;;;7.35;100.00
19600;BME280;9947;57.722;12.012;2024-03-22T09:54:25;100009.78;;;7.64;100.00
19600;BME280;9947;57.722;12.012;2024-03-22T09:56:52;99946.63;;;7.46;100.00
19600;BME280;9947;57.722;12.012;2024-03-22T09:59:20;99862.31;;;7.58;100.00
19600;BME280;9947;57.722;12.012;2024-03-22T10:01:48;99772.44;;;7.61;100.00
19600;BME280;9947;57.722;12.012;2024-03-22T10:04:16;99669.34;;;7.71;100.00
19600;BME280;9947;57.722;12.012;2024-03-22T10:06:45;99566.47;;;7.58;100.00
19600;BME280;9947;57.722;12.012;2024-03-22T10:09:17;99482.47;;;7.87;100.00
19600;BME280;9947;57.722;12.012;2024-03-22T10:11:45;99366.97;;;8.04;100.00
19600;BME280;9947;57.722;12.012;2024-03-22T10:14:14;99236.91;;;8.44;100.00
19600;BME280;9947;57.722;12.012;2024-03-22T10:16:41;99068.25;;;8.04;100.00
19600;BME280;9947;57.722;12.012;2024-03-22T10:19:07;98895.91;;;8.43;100.00
19600;BME280;9947;57.722;12.012;2024-03-22T10:21:34;98696.28;;;8.56;100.00
19600;BME280;9947;57.722;12.012;2024-03-22T10:24:02;98483.03;;;8.86;100.00
19600;BME280;9947;57.722;12.012;2024-03-22T10:26:33;98199.63;;;8.91;100.00
19600;BME280;9947;57.722;12.012;2024-03-22T10:29:00;97939.09;;;8.52;100.00
19600;BME280;9947;57.722;12.012;2024-03-22T10:31:26;97664.25;;;8.62;100.00
19600;BME280;9947;57.722;12.012;2024-03-22T10:33:57;97387.47;;;8.87;100.00
19600;BME280;9947;57.722;12.012;2024-03-22T10:39:01;97001.44;;;9.14;100.00
19600;BME280;9947;57.722;12.012;2024-03-22T10:41:33;96845.94;;;9.02;100.00
19600;BME280;9947;57.722;12.012;2024-03-22T10:43:59;96757.03;;;9.08;100.00
19600;BME280;9947;57.722;12.012;2024-03-22T10:46:30;96700.88;;;8.99;100.00
19600;BME280;9947;57.722;12.012;2024-03-22T10:48:56;96668.78;;;8.90;100.00
19600;BME280;9947;57.722;12.012;2024-03-22T10:53:51;96661.09;;;9.07;100.00
19600;BME280;9947;57.722;12.012;2024-03-22T10:56:22;96649.72;;;9.12;100.00
19600;BME280;9947;57.722;12.012;2024-03-22T10:58:51;96613.34;;;9.61;100.00
19600;BME280;9947;57.722;12.012;2024-03-22T11:03:45;96644.94;;;9.20;100.00
19600;BME280;9947;57.722;12.012;2024-03-22T11:06:12;96627.72;;;9.28;100.00
19600;BME280;9947;57.722;12.012;2024-03-22T11:08:38;96623.16;;;9.42;100.00
19600;BME280;9947;57.722;12.012;2024-03-22T11:11:09;96596.78;;;9.50;100.00
19600;BME280;9947;57.722;12.012;2024-03-22T11:13:36;96588.66;;;9.57;100.00
19600;BME280;9947;57.722;12.012;2024-03-22T11:16:05;96584.94;;;9.58;100.00
19600;BME280;9947;57.722;12.012;2024-03-22T11:18:31;96595.59;;;9.40;100.00
19600;BME280;9947;57.722;12.012;2024-03-22T11:20:59;96597.16;;;9.61;100.00
19600;BME280;9947;57.722;12.012;2024-03-22T11:23:26;96591.00;;;9.40;100.00
19600;BME280;9947;57.722;12.012;2024-03-22T11:25:53;96587.41;;;9.66;100.00
19600;BME280;9947;57.722;12.012;2024-03-22T11:30:44;96617.78;;;9.22;100.00
19600;BME280;9947;57.722;12.012;2024-03-22T11:35:46;96679.09;;;8.80;100.00
19600;BME280;9947;57.722;12.012;2024-03-22T11:38:15;96687.22;;;9.00;100.00
19600;BME280;9947;57.722;12.012;2024-03-22T11:40:41;96677.06;;;9.22;100.00
19600;BME280;9947;57.722;12.012;2024-03-22T11:43:09;96686.81;;;9.16;100.00
19600;BME280;9947;57.722;12.012;2024-03-22T11:45:39;96687.22;;;9.26;100.00
19600;BME280;9947;57.722;12.012;2024-03-22T11:48:08;96706.47;;;9.10;100.00
19600;BME280;9947;57.722;12.012;2024-03-22T11:50:36;96734.44;;;8.89;100.00
19600;BME280;9947;57.722;12.012;2024-03-22T11:53:07;96751.78;;;8.67;100.00
19600;BME280;9947;57.722;12.012;2024-03-22T11:55:36;96773.25;;;8.54;100.00
19600;BME280;9947;57.722;12.012;2024-03-22T11:58:03;96756.38;;;8.80;100.00
19600;BME280;9947;57.722;12.012;2024-03-22T12:00:30;96749.53;;;8.84;100.00
19600;BME280;9947;57.722;12.012;2024-03-22T12:03:00;96733.44;;;9.23;100.00
19600;BME280;9947;57.722;12.012;2024-03-22T12:05:30;96736.75;;;9.12;100.00
19600;BME280;9947;57.722;12.012;2024-03-22T12:08:00;96750.59;;;8.96;100.00
19600;BME280;9947;57.722;12.012;2024-03-22T12:10:30;96761.31;;;8.70;100.00
19600;BME280;9947;57.722;12.012;2024-03-22T12:12:57;96760.06;;;8.72;100.00
19600;BME280;9947;57.722;12.012;2024-03-22T12:17:53;96741.69;;;9.09;100.00
19600;BME280;9947;57.722;12.012;2024-03-22T12:20:23;96753.56;;;9.14;100.00
19600;BME280;9947;57.722;12.012;2024-03-22T12:22:48;96764.94;;;9.23;100.00
19600;BME280;9947;57.722;12.012;2024-03-22T12:25:16;96764.94;;;9.23;100.00
19600;BME280;9947;57.722;12.012;2024-03-22T12:27:46;96767.22;;;9.33;100.00
19600;BME280;9947;57.722;12.012;2024-03-22T12:30:15;96753.53;;;9.61;100.00
19600;BME280;9947;57.722;12.012;2024-03-22T12:32:41;96756.44;;;9.79;100.00
19600;BME280;9947;57.722;12.012;2024-03-22T12:35:09;96788.19;;;9.77;100.00
19600;BME280;9947;57.722;12.012;2024-03-22T12:37:40;96799.59;;;9.66;100.00
19600;BME280;9947;57.722;12.012;2024-03-22T12:40:10;96817.44;;;9.40;100.00
19600;BME280;9947;57.722;12.012;2024-03-22T12:42:37;96787.50;;;9.02;100.00
19600;BME280;9947;57.722;12.012;2024-03-22T12:45:06;96801.44;;;8.58;100.00
19600;BME280;9947;57.722;12.012;2024-03-22T12:47:32;96793.59;;;8.63;100.00
19600;BME280;9947;57.722;12.012;2024-03-22T12:49:59;96767.63;;;9.16;100.00
19600;BME280;9947;57.722;12.012;2024-03-22T12:54:55;96780.09;;;9.37;100.00
19600;BME280;9947;57.722;12.012;2024-03-22T12:57:23;96785.47;;;9.31;100.00
19600;BME280;9947;57.722;12.012;2024-03-22T12:59:52;96799.97;;;9.16;100.00
19600;BME280;9947;57.722;12.012;2024-03-22T13:02:26;96793.69;;;8.89;100.00
19600;BME280;9947;57.722;12.012;2024-03-22T13:04:55;96795.91;;;8.73;100.00
19600;BME280;9947;57.722;12.012;2024-03-22T13:09:46;96798.94;;;8.56;100.00
19600;BME280;9947;57.722;12.012;2024-03-22T13:12:15;96797.91;;;8.57;100.00
19600;BME280;9947;57.722;12.012;2024-03-22T13:14:42;96797.78;;;8.72;100.00
19600;BME280;9947;57.722;12.012;2024-03-22T13:17:09;96798.19;;;8.69;100.00
19600;BME280;9947;57.722;12.012;2024-03-22T13:19:37;96801.34;;;8.86;100.00
19600;BME280;9947;57.722;12.012;2024-03-22T13:22:06;96790.16;;;8.89;100.00
19600;BME280;9947;57.722;12.012;2024-03-22T13:24:34;96807.22;;;8.55;100.00
19600;BME280;9947;57.722;12.012;2024-03-22T13:27:01;96804.16;;;8.30;100.00
19600;BME280;9947;57.722;12.012;2024-03-22T13:29:29;96802.31;;;8.30;100.00
19600;BME280;9947;57.722;12.012;2024-03-22T13:31:57;96808.00;;;8.42;100.00
19600;BME280;9947;57.722;12.012;2024-03-22T13:36:52;96804.88;;;8.39;100.00
19600;BME280;9947;57.722;12.012;2024-03-22T13:41:45;96787.53;;;8.48;100.00
19600;BME280;9947;57.722;12.012;2024-03-22T13:44:12;96791.13;;;8.27;100.00
19600;BME280;9947;57.722;12.012;2024-03-22T13:46:40;96778.22;;;8.57;100.00
19600;BME280;9947;57.722;12.012;2024-03-22T13:49:13;96765.03;;;8.62;100.00
19600;BME280;9947;57.722;12.012;2024-03-22T13:51:41;96769.13;;;8.51;100.00
19600;BME280;9947;57.722;12.012;2024-03-22T13:54:11;96724.53;;;9.16;100.00
19600;BME280;9947;57.722;12.012;2024-03-22T13:56:37;96764.63;;;8.65;100.00
19600;BME280;9947;57.722;12.012;2024-03-22T13:59:05;96733.63;;;8.95;100.00
19600;BME280;9947;57.722;12.012;2024-03-22T14:01:31;96744.81;;;9.06;100.00
19600;BME280;9947;57.722;12.012;2024-03-22T14:04:00;96765.47;;;8.72;100.00
19600;BME280;9947;57.722;12.012;2024-03-22T14:06:26;96767.97;;;8.80;100.00
19600;BME280;9947;57.722;12.012;2024-03-22T14:08:54;96757.28;;;9.13;100.00
19600;BME280;9947;57.722;12.012;2024-03-22T14:11:28;96775.94;;;9.21;100.00
19600;BME280;9947;57.722;12.012;2024-03-22T14:13:56;96835.97;;;8.95;100.00
19600;BME280;9947;57.722;12.012;2024-03-22T14:16:24;96863.22;;;8.73;100.00
19600;BME280;9947;57.722;12.012;2024-03-22T14:21:24;96974.09;;;8.83;100.00
19600;BME280;9947;57.722;12.012;2024-03-22T14:23:54;97026.16;;;8.34;100.00
19600;BME280;9947;57.722;12.012;2024-03-22T14:26:23;97066.19;;;8.29;100.00
19600;BME280;9947;57.722;12.012;2024-03-22T14:28:55;97119.69;;;8.17;100.00
19600;BME280;9947;57.722;12.012;2024-03-22T14:31:22;97151.78;;;8.19;100.00
19600;BME280;9947;57.722;12.012;2024-03-22T14:33:51;97175.88;;;8.27;100.00
19600;BME280;9947;57.722;12.012;2024-03-22T14:36:19;97206.50;;;8.26;100.00
19600;BME280;9947;57.722;12.012;2024-03-22T14:41:09;97284.84;;;8.16;100.00
19600;BME280;9947;57.722;12.012;2024-03-22T14:43:38;97319.44;;;8.19;100.00
19600;BME280;9947;57.722;12.012;2024-03-22T14:46:07;97345.56;;;8.33;100.00
19600;BME280;9947;57.722;12.012;2024-03-22T14:48:35;97372.97;;;8.29;100.00
19600;BME280;9947;57.722;12.012;2024-03-22T14:51:03;97443.94;;;8.28;100.00